createdAt,value
2023-03-13T00:00:25.689Z,8.11
2023-03-13T00:03:14.824Z,8.28
2023-03-13T00:06:01.209Z,8.29
2023-03-13T00:08:47.916Z,8.26
2023-03-13T00:11:34.858Z,8.35
2023-03-13T00:14:21.274Z,8.48
2023-03-13T00:17:09.455Z,8.45
2023-03-13T00:19:56.096Z,8.33
2023-03-13T00:22:42.737Z,8.53
2023-03-13T00:25:29.395Z,8.51
2023-03-13T00:28:16.142Z,8.56
2023-03-13T00:31:04.207Z,8.57
2023-03-13T00:33:53.861Z,8.54
2023-03-13T00:36:40.990Z,8.62
2023-03-13T00:39:27.490Z,8.46
2023-03-13T00:42:14.320Z,8.59
2023-03-13T00:45:01.141Z,8.54
2023-03-13T00:47:50.097Z,8.65
2023-03-13T00:50:38.028Z,8.57
2023-03-13T00:53:24.881Z,8.61
2023-03-13T00:56:13.244Z,8.70
2023-03-13T00:59:01.656Z,8.55
2023-03-13T01:01:48.926Z,8.51
2023-03-13T01:04:35.533Z,8.60
2023-03-13T01:07:23.745Z,8.66
2023-03-13T01:10:11.573Z,8.66
2023-03-13T01:12:58.488Z,8.75
2023-03-13T01:15:45.134Z,8.76
2023-03-13T01:18:32.143Z,8.75
2023-03-13T01:21:22.375Z,8.79
2023-03-13T01:24:11.298Z,8.81
2023-03-13T01:26:57.943Z,8.70
2023-03-13T01:29:44.619Z,8.70
2023-03-13T01:32:34.594Z,8.70
2023-03-13T01:35:22.502Z,8.73
2023-03-13T01:38:09.536Z,8.68
2023-03-13T01:40:58.098Z,8.76
2023-03-13T01:43:45.699Z,8.57
2023-03-13T01:46:32.818Z,8.82
2023-03-13T01:49:25.300Z,8.78
2023-03-13T01:52:24.853Z,8.96
2023-03-13T01:55:22.343Z,8.87
2023-03-13T01:58:13.022Z,8.91
2023-03-13T02:01:00.635Z,8.89
2023-03-13T02:03:48.288Z,8.79
2023-03-13T02:06:40.039Z,9.00
2023-03-13T02:09:31.298Z,9.09
2023-03-13T02:12:26.836Z,9.04
2023-03-13T02:15:17.515Z,9.05
2023-03-13T02:18:05.220Z,9.14
2023-03-13T02:20:57.783Z,9.09
2023-03-13T02:23:54.486Z,9.05
2023-03-13T02:26:42.483Z,8.93
2023-03-13T02:29:29.272Z,8.94
2023-03-13T02:32:16.634Z,8.99
2023-03-13T02:35:07.801Z,8.99
2023-03-13T02:37:58.286Z,8.86
2023-03-13T02:40:48.157Z,8.94
2023-03-13T02:43:38.023Z,9.07
2023-03-13T02:46:25.989Z,9.03
2023-03-13T02:49:22.238Z,9.06
2023-03-13T02:52:15.281Z,9.07
2023-03-13T02:55:10.055Z,9.02
2023-03-13T02:57:56.709Z,9.12
2023-03-13T03:00:44.796Z,9.15
2023-03-13T03:03:31.453Z,9.07
2023-03-13T03:06:18.270Z,9.13
2023-03-13T03:09:06.290Z,9.17
2023-03-13T03:11:55.464Z,9.28
2023-03-13T03:14:42.627Z,9.29
2023-03-13T03:17:30.833Z,9.19
2023-03-13T03:20:17.509Z,9.26
2023-03-13T03:23:04.357Z,9.40
2023-03-13T03:25:52.161Z,9.29
2023-03-13T03:28:39.008Z,9.35
2023-03-13T03:31:31.523Z,8.99
2023-03-13T03:34:19.846Z,9.31
2023-03-13T03:37:07.171Z,9.43
2023-03-13T03:39:53.936Z,9.43
2023-03-13T03:42:40.606Z,9.52
2023-03-13T03:45:27.263Z,9.37
2023-03-13T03:48:14.266Z,9.34
2023-03-13T03:51:02.333Z,9.38
2023-03-13T03:53:50.984Z,9.40
2023-03-13T03:56:37.903Z,9.41
2023-03-13T03:59:25.253Z,9.48
2023-03-13T04:02:17.764Z,9.34
2023-03-13T04:05:05.428Z,9.41
2023-03-13T04:07:56.041Z,9.52
2023-03-13T04:10:42.728Z,9.50
2023-03-13T04:13:29.497Z,9.53
2023-03-13T04:16:18.330Z,9.67
2023-03-13T04:19:07.546Z,9.66
2023-03-13T04:21:55.275Z,9.60
2023-03-13T04:24:43.422Z,9.63
2023-03-13T04:27:30.384Z,9.65
2023-03-13T04:30:18.727Z,9.69
2023-03-13T04:33:27.129Z,9.67
2023-03-13T04:36:43.030Z,9.63
2023-03-13T04:40:03.775Z,9.38
2023-03-13T04:43:13.816Z,9.38
2023-03-13T04:46:20.335Z,9.48
2023-03-13T04:49:10.080Z,9.62
2023-03-13T04:52:28.317Z,9.61
2023-03-13T04:55:40.597Z,9.69
2023-03-13T04:58:47.033Z,9.67
2023-03-13T05:01:47.356Z,9.73
2023-03-13T05:04:54.205Z,9.66
2023-03-13T05:07:50.521Z,9.72
2023-03-13T05:11:10.550Z,9.67
2023-03-13T05:14:19.530Z,9.73
2023-03-13T05:17:32.361Z,9.80
2023-03-13T05:20:38.089Z,9.81
2023-03-13T05:23:31.542Z,9.68
2023-03-13T05:26:38.445Z,9.68
2023-03-13T05:29:54.145Z,9.64
2023-03-13T05:33:06.925Z,9.71
2023-03-13T05:36:11.845Z,9.71
2023-03-13T05:39:05.755Z,9.82
2023-03-13T05:42:02.737Z,9.83
2023-03-13T05:45:10.058Z,9.61
2023-03-13T05:48:15.614Z,9.77
2023-03-13T05:51:21.289Z,9.88
2023-03-13T05:54:18.808Z,9.90
2023-03-13T05:57:25.745Z,9.81
2023-03-13T06:00:38.753Z,9.81
2023-03-13T06:04:01.210Z,9.94
2023-03-13T06:06:49.780Z,10.00
2023-03-13T06:09:38.154Z,9.88
2023-03-13T06:12:26.390Z,9.53
2023-03-13T06:15:13.402Z,10.02
2023-03-13T06:18:19.186Z,10.07
2023-03-13T06:21:06.229Z,9.87
2023-03-13T06:23:52.887Z,9.94
2023-03-13T06:26:39.638Z,10.18
2023-03-13T06:29:28.305Z,10.19
2023-03-13T06:32:15.033Z,10.26
2023-03-13T06:35:01.693Z,10.25
2023-03-13T06:37:48.396Z,10.23
2023-03-13T06:40:35.236Z,10.15
2023-03-13T06:43:22.583Z,10.05
2023-03-13T06:46:18.448Z,10.04
2023-03-13T06:49:06.210Z,10.00
2023-03-13T06:51:52.753Z,10.14
2023-03-13T06:54:39.721Z,10.18
2023-03-13T06:57:26.523Z,10.24
2023-03-13T07:00:14.121Z,10.28
2023-03-13T07:03:02.020Z,10.20
2023-03-13T07:05:48.920Z,10.45
2023-03-13T07:08:37.015Z,10.60
2023-03-13T07:11:23.801Z,10.52
2023-03-13T07:14:16.960Z,10.74
2023-03-13T07:17:04.116Z,10.71
2023-03-13T07:19:52.399Z,10.74
2023-03-13T07:22:39.446Z,10.68
2023-03-13T07:25:26.745Z,10.72
2023-03-13T07:28:13.542Z,10.70
2023-03-13T07:31:08.454Z,10.82
2023-03-13T07:33:56.635Z,10.70
2023-03-13T07:36:44.509Z,10.45
2023-03-13T07:39:31.321Z,10.64
2023-03-13T07:42:18.089Z,10.68
2023-03-13T07:45:06.513Z,10.63
2023-03-13T07:47:53.258Z,10.47
2023-03-13T07:50:40.169Z,10.73
2023-03-13T07:53:30.902Z,10.76
2023-03-13T07:56:19.275Z,10.59
2023-03-13T07:59:05.678Z,10.70
2023-03-13T08:01:52.479Z,10.80
2023-03-13T08:04:39.150Z,10.86
2023-03-13T08:07:25.705Z,10.93
2023-03-13T08:10:14.142Z,10.93
2023-03-13T08:13:00.877Z,10.97
2023-03-13T08:15:47.582Z,10.80
2023-03-13T08:18:35.844Z,10.82
2023-03-13T08:21:25.457Z,10.75
2023-03-13T08:24:13.381Z,10.66
2023-03-13T08:27:01.582Z,10.74
2023-03-13T08:29:48.406Z,10.43
2023-03-13T08:32:35.357Z,10.94
2023-03-13T08:35:22.558Z,10.98
2023-03-13T08:38:09.361Z,11.04
2023-03-13T08:40:58.310Z,11.05
2023-03-13T08:43:46.935Z,10.68
2023-03-13T08:46:35.818Z,11.08
2023-03-13T08:49:22.645Z,11.12
2023-03-13T08:52:09.653Z,11.16
2023-03-13T08:54:56.260Z,11.05
2023-03-13T08:57:43.070Z,11.12
2023-03-13T09:00:31.334Z,11.14
2023-03-13T09:03:18.644Z,11.22
2023-03-13T09:06:05.934Z,11.13
2023-03-13T09:08:52.992Z,11.25
2023-03-13T09:11:40.460Z,11.00
2023-03-13T09:14:27.410Z,11.15
2023-03-13T09:17:15.353Z,11.29
2023-03-13T09:20:02.177Z,11.33
2023-03-13T09:22:49.042Z,11.38
2023-03-13T09:25:35.752Z,11.45
2023-03-13T09:28:22.888Z,11.31
2023-03-13T09:31:10.450Z,11.47
2023-03-13T09:33:58.504Z,11.56
2023-03-13T09:36:45.234Z,11.63
2023-03-13T09:39:32.299Z,11.38
2023-03-13T09:42:21.777Z,11.47
2023-03-13T09:45:14.789Z,11.58
2023-03-13T09:48:06.833Z,11.59
2023-03-13T09:51:02.818Z,11.57
2023-03-13T09:53:54.625Z,11.72
2023-03-13T09:56:46.653Z,11.85
2023-03-13T09:59:43.686Z,11.92
2023-03-13T10:02:35.121Z,11.82
2023-03-13T10:05:24.238Z,11.74
2023-03-13T10:08:17.330Z,11.60
2023-03-13T10:11:08.008Z,11.86
2023-03-13T10:14:00.889Z,11.78
2023-03-13T10:16:56.398Z,11.51
2023-03-13T10:19:44.660Z,11.80
2023-03-13T10:22:32.976Z,11.87
2023-03-13T10:25:29.759Z,11.95
2023-03-13T10:28:19.415Z,12.03
2023-03-13T10:31:13.475Z,12.08
2023-03-13T10:34:07.980Z,12.05
2023-03-13T10:37:00.459Z,12.17
2023-03-13T10:39:46.803Z,12.36
2023-03-13T10:42:39.343Z,12.39
2023-03-13T10:45:26.427Z,12.90
2023-03-13T10:48:15.392Z,12.85
2023-03-13T10:51:02.575Z,13.25
2023-03-13T10:53:51.568Z,13.20
2023-03-13T10:56:38.141Z,13.11
2023-03-13T10:59:28.073Z,13.18
2023-03-13T11:02:23.799Z,13.33
2023-03-13T11:05:36.153Z,13.75
2023-03-13T11:08:27.388Z,13.64
2023-03-13T11:11:19.607Z,13.77
2023-03-13T11:14:13.878Z,13.91
2023-03-13T11:17:10.987Z,13.79
2023-03-13T11:20:09.402Z,14.16
2023-03-13T11:23:14.620Z,14.45
2023-03-13T11:26:07.742Z,14.71
2023-03-13T11:28:59.627Z,14.51
2023-03-13T11:31:50.412Z,14.61
2023-03-13T11:34:46.230Z,14.83
2023-03-13T11:37:34.862Z,14.60
2023-03-13T11:40:28.253Z,14.60
2023-03-13T11:43:28.522Z,14.57
2023-03-13T11:46:24.314Z,14.47
2023-03-13T11:49:34.070Z,14.45
2023-03-13T11:52:33.226Z,14.61
2023-03-13T11:55:33.440Z,14.89
2023-03-13T11:58:33.243Z,14.60
2023-03-13T12:01:21.854Z,14.53
2023-03-13T12:04:18.668Z,14.54
2023-03-13T12:07:11.560Z,14.87
2023-03-13T12:10:03.421Z,15.00
2023-03-13T12:12:57.409Z,15.16
2023-03-13T12:15:48.000Z,15.25
2023-03-13T12:18:38.567Z,15.34
2023-03-13T12:21:32.281Z,15.26
2023-03-13T12:24:27.645Z,15.39
2023-03-13T12:27:21.150Z,15.77
2023-03-13T12:30:16.561Z,15.65
2023-03-13T12:33:14.632Z,15.70
2023-03-13T12:36:09.241Z,15.76
2023-03-13T12:39:00.024Z,15.79
2023-03-13T12:41:52.447Z,15.69
2023-03-13T12:44:41.201Z,15.90
2023-03-13T12:47:33.063Z,16.04
2023-03-13T12:50:29.812Z,16.07
2023-03-13T12:53:39.923Z,16.19
2023-03-13T12:56:38.679Z,16.30
2023-03-13T12:59:29.963Z,16.21
2023-03-13T13:02:21.559Z,16.42
2023-03-13T13:05:19.138Z,16.71
2023-03-13T13:08:06.343Z,16.52
2023-03-13T13:10:53.032Z,16.70
2023-03-13T13:13:41.135Z,16.32
2023-03-13T13:16:28.871Z,16.36
2023-03-13T13:19:48.522Z,16.32
2023-03-13T13:22:52.858Z,16.55
2023-03-13T13:25:39.708Z,16.75
2023-03-13T13:28:36.635Z,16.63
2023-03-13T13:31:59.566Z,16.75
2023-03-13T13:35:03.004Z,16.65
2023-03-13T13:37:50.307Z,16.95
2023-03-13T13:40:37.274Z,16.80
2023-03-13T13:43:25.518Z,17.00
2023-03-13T13:46:24.913Z,17.18
2023-03-13T13:49:19.525Z,17.06
2023-03-13T13:52:33.488Z,17.23
2023-03-13T13:55:41.922Z,17.30
2023-03-13T13:58:32.476Z,17.16
2023-03-13T14:01:19.590Z,17.37
2023-03-13T14:04:15.743Z,17.59
2023-03-13T14:07:07.139Z,17.57
2023-03-13T14:10:12.430Z,17.49
2023-03-13T14:13:00.575Z,17.62
2023-03-13T14:15:49.014Z,17.63
2023-03-13T14:18:44.937Z,17.65
2023-03-13T14:21:33.233Z,17.57
2023-03-13T14:24:25.111Z,17.65
2023-03-13T14:27:22.722Z,17.77
2023-03-13T14:30:13.413Z,17.60
2023-03-13T14:33:09.500Z,17.76
2023-03-13T14:36:12.208Z,17.71
2023-03-13T14:39:17.184Z,17.67
2023-03-13T14:42:11.090Z,17.84
2023-03-13T14:45:00.256Z,17.86
2023-03-13T14:47:49.920Z,17.98
2023-03-13T14:50:37.854Z,17.77
2023-03-13T14:53:27.306Z,17.84
2023-03-13T14:56:29.955Z,17.87
2023-03-13T14:59:35.873Z,17.91
2023-03-13T15:05:50.305Z,17.73
2023-03-13T15:08:59.492Z,17.59
2023-03-13T15:12:03.846Z,17.55
2023-03-13T15:14:58.214Z,17.70
2023-03-13T15:18:21.698Z,17.85
2023-03-13T15:21:31.529Z,17.71
2023-03-13T15:24:24.852Z,17.65
2023-03-13T15:27:28.312Z,17.69
2023-03-13T15:30:19.652Z,17.83
2023-03-13T15:33:22.389Z,17.96
2023-03-13T15:36:16.759Z,17.69
2023-03-13T15:39:12.634Z,17.59
2023-03-13T15:42:19.602Z,17.43
2023-03-13T15:45:21.853Z,17.42
2023-03-13T15:48:23.644Z,17.52
2023-03-13T15:51:18.043Z,17.42
2023-03-13T15:54:10.172Z,17.48
2023-03-13T15:57:09.555Z,17.47
2023-03-13T16:00:02.432Z,17.45
2023-03-13T16:03:02.087Z,17.38
2023-03-13T16:06:04.837Z,17.27
2023-03-13T16:09:11.221Z,17.32
2023-03-13T16:12:15.128Z,17.32
2023-03-13T16:15:11.234Z,17.16
2023-03-13T16:18:21.182Z,17.20
2023-03-13T16:21:24.485Z,17.16
2023-03-13T16:24:28.716Z,17.17
2023-03-13T16:27:26.210Z,17.42
2023-03-13T16:30:33.686Z,17.38
2023-03-13T16:33:46.194Z,17.36
2023-03-13T16:36:44.692Z,17.31
2023-03-13T16:39:35.387Z,17.33
2023-03-13T16:42:30.350Z,17.29
2023-03-13T16:45:26.428Z,17.17
2023-03-13T16:48:35.304Z,17.21
2023-03-13T16:51:37.539Z,17.15
2023-03-13T16:54:37.093Z,17.16
2023-03-13T16:57:47.923Z,17.09
2023-03-13T17:01:04.370Z,17.11
2023-03-13T17:04:03.745Z,17.02
2023-03-13T17:07:00.755Z,16.98
2023-03-13T17:09:56.162Z,16.93
2023-03-13T17:12:48.300Z,16.75
2023-03-13T17:15:52.373Z,16.69
2023-03-13T17:18:43.428Z,16.66
2023-03-13T17:21:55.464Z,16.29
2023-03-13T17:24:44.791Z,16.55
2023-03-13T17:27:36.389Z,16.48
2023-03-13T17:30:26.891Z,16.44
2023-03-13T17:33:15.379Z,16.42
2023-03-13T17:36:05.497Z,16.41
2023-03-13T17:38:56.778Z,16.59
2023-03-13T17:41:44.928Z,16.47
2023-03-13T17:44:35.802Z,16.57
2023-03-13T17:47:26.513Z,16.54
2023-03-13T17:50:20.785Z,16.58
2023-03-13T17:53:10.189Z,16.61
2023-03-13T17:56:01.989Z,16.50
2023-03-13T17:59:02.180Z,16.42
2023-03-13T18:02:06.909Z,16.30
2023-03-13T18:05:04.719Z,16.44
2023-03-13T18:08:11.415Z,16.25
2023-03-13T18:11:07.851Z,16.31
2023-03-13T18:14:22.000Z,16.32
2023-03-13T18:17:23.326Z,16.22
2023-03-13T18:20:20.832Z,16.14
2023-03-13T18:23:11.173Z,16.30
2023-03-13T18:26:02.696Z,16.32
2023-03-13T18:28:59.961Z,16.37
2023-03-13T18:32:07.766Z,16.29
2023-03-13T18:35:06.799Z,16.42
2023-03-13T18:37:59.331Z,16.44
2023-03-13T18:40:51.241Z,16.29
2023-03-13T18:43:44.309Z,16.34
2023-03-13T18:46:39.164Z,16.26
2023-03-13T18:49:31.782Z,16.37
2023-03-13T18:52:23.845Z,16.27
2023-03-13T18:55:12.582Z,16.14
2023-03-13T18:58:00.646Z,16.24
2023-03-13T19:00:49.266Z,16.32
2023-03-13T19:03:37.961Z,16.22
2023-03-13T19:06:29.062Z,16.21
2023-03-13T19:09:42.264Z,16.22
2023-03-13T19:12:32.445Z,16.14
2023-03-13T19:15:25.765Z,16.24
2023-03-13T19:18:14.354Z,16.04
2023-03-13T19:21:03.104Z,16.19
2023-03-13T19:23:53.386Z,16.37
2023-03-13T19:26:45.331Z,16.28
2023-03-13T19:29:37.629Z,16.30
2023-03-13T19:32:26.219Z,16.32
2023-03-13T19:35:19.268Z,16.27
2023-03-13T19:38:06.605Z,16.20
2023-03-13T19:40:53.519Z,16.16
2023-03-13T19:43:43.088Z,16.27
2023-03-13T19:46:31.121Z,16.24
2023-03-13T19:49:20.330Z,16.30
2023-03-13T19:52:08.463Z,16.48
2023-03-13T19:54:56.293Z,16.25
2023-03-13T19:57:43.345Z,16.15
2023-03-13T20:00:31.370Z,16.36
2023-03-13T20:03:18.229Z,16.39
2023-03-13T20:06:05.448Z,16.26
2023-03-13T20:08:55.534Z,15.84
2023-03-13T20:11:42.308Z,16.14
2023-03-13T20:14:30.631Z,15.97
2023-03-13T20:17:18.519Z,15.98
2023-03-13T20:20:08.543Z,16.06
2023-03-13T20:22:57.196Z,15.95
2023-03-13T20:25:46.098Z,15.95
2023-03-13T20:28:32.924Z,15.82
2023-03-13T20:31:22.047Z,15.84
2023-03-13T20:34:10.043Z,15.89
2023-03-13T20:36:57.279Z,15.93
2023-03-13T20:39:43.856Z,15.90
2023-03-13T20:42:30.603Z,15.80
2023-03-13T20:45:17.576Z,15.73
2023-03-13T20:48:04.009Z,15.76
2023-03-13T20:50:53.705Z,15.80
2023-03-13T20:53:41.763Z,15.76
2023-03-13T20:56:28.612Z,15.86
2023-03-13T20:59:15.283Z,15.74
2023-03-13T21:02:02.375Z,15.90
2023-03-13T21:04:49.249Z,15.91
2023-03-13T21:07:37.375Z,15.83
2023-03-13T21:10:24.125Z,15.91
2023-03-13T21:13:11.851Z,15.87
2023-03-13T21:16:04.500Z,15.79
2023-03-13T21:18:51.962Z,15.76
2023-03-13T21:21:38.764Z,15.81
2023-03-13T21:24:26.962Z,15.59
2023-03-13T21:27:14.361Z,15.61
2023-03-13T21:30:01.055Z,15.77
2023-03-13T21:32:49.017Z,15.91
2023-03-13T21:35:35.907Z,15.78
2023-03-13T21:38:23.166Z,15.79
2023-03-13T21:41:12.889Z,15.53
2023-03-13T21:43:59.569Z,15.63
2023-03-13T21:46:48.817Z,15.66
2023-03-13T21:49:35.682Z,15.62
2023-03-13T21:52:23.455Z,15.59
2023-03-13T21:55:13.145Z,15.42
2023-03-13T21:58:01.161Z,15.47
2023-03-13T22:00:47.918Z,15.32
2023-03-13T22:03:34.717Z,15.45
2023-03-13T22:06:23.506Z,15.44
2023-03-13T22:09:10.014Z,15.41
2023-03-13T22:11:56.641Z,15.45
2023-03-13T22:14:44.874Z,15.48
2023-03-13T22:17:31.637Z,15.56
2023-03-13T22:20:18.564Z,15.50
2023-03-13T22:23:04.945Z,15.53
2023-03-13T22:25:51.800Z,15.55
2023-03-13T22:28:38.713Z,15.48
2023-03-13T22:31:26.513Z,15.51
2023-03-13T22:34:13.369Z,15.49
2023-03-13T22:37:00.345Z,15.55
2023-03-13T22:39:46.801Z,15.59
2023-03-13T22:42:33.636Z,15.50
2023-03-13T22:45:20.934Z,15.49
2023-03-13T22:48:09.181Z,15.48
2023-03-13T22:51:03.281Z,15.43
2023-03-13T22:53:49.928Z,15.46
2023-03-13T22:56:36.888Z,15.40
2023-03-13T22:59:23.354Z,15.39
2023-03-13T23:02:10.140Z,15.42
2023-03-13T23:05:01.293Z,15.26
2023-03-13T23:07:50.393Z,15.25
2023-03-13T23:10:37.200Z,15.20
2023-03-13T23:13:23.547Z,15.27
2023-03-13T23:16:12.199Z,15.17
2023-03-13T23:18:58.856Z,15.21
2023-03-13T23:21:46.951Z,15.13
2023-03-13T23:24:33.595Z,15.10
2023-03-13T23:27:20.380Z,15.20
2023-03-13T23:30:09.799Z,15.32
2023-03-13T23:32:56.570Z,15.26
2023-03-13T23:35:44.071Z,15.12
2023-03-13T23:38:32.168Z,15.08
2023-03-13T23:41:19.952Z,15.04
2023-03-13T23:44:10.130Z,14.89
2023-03-13T23:47:00.704Z,15.02
2023-03-13T23:49:48.956Z,14.98
2023-03-13T23:52:36.251Z,14.97
2023-03-13T23:55:25.479Z,14.92
2023-03-13T23:58:12.395Z,14.69
